createdAt,value
2018-10-17T00:00:19.424Z,1015.30
2018-10-17T00:01:19.407Z,1015.23
2018-10-17T00:02:19.388Z,1015.22
2018-10-17T00:03:19.397Z,1015.20
2018-10-17T00:04:19.360Z,1015.20
2018-10-17T00:05:19.349Z,1015.17
2018-10-17T00:06:19.335Z,1015.18
2018-10-17T00:07:19.313Z,1015.15
2018-10-17T00:08:19.301Z,1015.15
2018-10-17T00:09:19.304Z,1015.18
2018-10-17T00:10:19.289Z,1015.20
2018-10-17T00:11:19.255Z,1015.18
2018-10-17T00:12:19.234Z,1015.20
2018-10-17T00:13:19.222Z,1015.23
2018-10-17T00:14:19.211Z,1015.25
2018-10-17T00:15:19.211Z,1015.25
2018-10-17T00:16:21.786Z,1015.27
2018-10-17T00:17:19.158Z,1015.30
2018-10-17T00:18:19.145Z,1015.27
2018-10-17T00:19:19.129Z,1015.29
2018-10-17T00:20:19.128Z,1015.28
2018-10-17T00:21:19.096Z,1015.33
2018-10-17T00:22:19.104Z,1015.28
2018-10-17T00:23:19.069Z,1015.27
2018-10-17T00:24:19.051Z,1015.26
2018-10-17T00:25:19.038Z,1015.25
2018-10-17T00:26:19.040Z,1015.27
2018-10-17T00:27:19.007Z,1015.25
2018-10-17T00:28:18.993Z,1015.25
2018-10-17T00:29:18.977Z,1015.26
2018-10-17T00:30:18.962Z,1015.26
2018-10-17T00:31:18.960Z,1015.24
2018-10-17T00:32:18.934Z,1015.23
2018-10-17T00:33:18.909Z,1015.18
2018-10-17T00:34:18.901Z,1015.17
2018-10-17T00:35:18.898Z,1015.19
2018-10-17T00:36:18.864Z,1015.19
2018-10-17T00:37:18.885Z,1015.20
2018-10-17T00:38:18.836Z,1015.18
2018-10-17T00:39:18.817Z,1015.20
2018-10-17T00:40:18.860Z,1015.17
2018-10-17T00:41:18.789Z,1015.19
2018-10-17T00:42:18.797Z,1015.13
2018-10-17T00:43:18.845Z,1015.17
2018-10-17T00:44:18.739Z,1015.17
2018-10-17T00:45:18.726Z,1015.16
2018-10-17T00:46:18.706Z,1015.11
2018-10-17T00:47:18.694Z,1015.12
2018-10-17T00:48:18.696Z,1015.11
2018-10-17T00:49:19.261Z,1015.09
2018-10-17T00:50:18.650Z,1015.11
2018-10-17T00:51:18.658Z,1015.07
2018-10-17T00:52:18.622Z,1015.08
2018-10-17T00:53:18.603Z,1015.09
2018-10-17T00:54:18.593Z,1015.09
2018-10-17T00:55:18.575Z,1015.09
2018-10-17T00:56:18.560Z,1015.07
2018-10-17T00:57:18.571Z,1015.07
2018-10-17T00:58:18.542Z,1015.05
2018-10-17T00:59:18.534Z,1015.05
2018-10-17T01:00:18.505Z,1015.04
2018-10-17T01:01:18.476Z,1015.02
2018-10-17T01:02:18.466Z,1015.02
2018-10-17T01:03:18.471Z,1015.00
2018-10-17T01:04:18.430Z,1015.02
2018-10-17T01:05:18.416Z,1015.03
2018-10-17T01:06:18.403Z,1014.99
2018-10-17T01:07:18.389Z,1014.98
2018-10-17T01:08:18.396Z,1014.98
2018-10-17T01:09:18.355Z,1014.98
2018-10-17T01:10:18.341Z,1014.97
2018-10-17T01:11:18.326Z,1015.01
2018-10-17T01:12:18.309Z,1014.99
2018-10-17T01:13:18.293Z,1014.99
2018-10-17T01:14:18.300Z,1014.97
2018-10-17T01:15:18.281Z,1015.00
2018-10-17T01:16:18.248Z,1014.98
2018-10-17T01:17:18.231Z,1015.00
2018-10-17T01:18:18.230Z,1014.96
2018-10-17T01:19:18.222Z,1014.96
2018-10-17T01:20:18.193Z,1014.99
2018-10-17T01:21:18.169Z,1014.99
2018-10-17T01:22:18.157Z,1014.99
2018-10-17T01:23:18.138Z,1014.94
2018-10-17T01:24:18.123Z,1014.98
2018-10-17T01:25:18.122Z,1014.99
2018-10-17T01:26:18.115Z,1014.99
2018-10-17T01:27:18.080Z,1015.00
2018-10-17T01:28:18.064Z,1014.99
2018-10-17T01:29:18.760Z,1015.00
2018-10-17T01:30:18.032Z,1014.99
2018-10-17T01:31:18.014Z,1015.01
2018-10-17T01:32:18.022Z,1014.97
2018-10-17T01:33:17.996Z,1015.00
2018-10-17T01:34:17.968Z,1014.99
2018-10-17T01:35:17.953Z,1015.01
2018-10-17T01:36:17.937Z,1014.97
2018-10-17T01:37:18.023Z,1015.00
2018-10-17T01:38:17.924Z,1015.01
2018-10-17T01:39:17.891Z,1015.02
2018-10-17T01:40:17.880Z,1015.02
2018-10-17T01:41:17.942Z,1015.01
2018-10-17T01:42:17.842Z,1015.01
2018-10-17T01:43:17.911Z,1015.06
2018-10-17T01:44:17.809Z,1015.07
2018-10-17T01:45:17.812Z,1015.06
2018-10-17T01:46:17.796Z,1015.05
2018-10-17T01:47:17.762Z,1015.06
2018-10-17T01:48:17.758Z,1015.03
2018-10-17T01:49:17.731Z,1015.03
2018-10-17T01:50:17.725Z,1015.04
2018-10-17T01:51:17.703Z,1015.02
2018-10-17T01:52:17.704Z,1015.01
2018-10-17T01:53:17.684Z,1015.01
2018-10-17T01:54:17.657Z,1014.97
2018-10-17T01:55:17.630Z,1015.05
2018-10-17T01:56:17.647Z,1015.01
2018-10-17T01:57:17.605Z,1014.99
2018-10-17T01:58:17.605Z,1014.97
2018-10-17T01:59:17.574Z,1014.98
2018-10-17T02:00:17.556Z,1015.01
2018-10-17T02:01:17.544Z,1015.03
2018-10-17T02:02:17.549Z,1015.01
2018-10-17T02:03:17.511Z,1015.01
2018-10-17T02:04:17.508Z,1015.02
2018-10-17T02:05:17.563Z,1015.02
2018-10-17T02:06:18.239Z,1015.03
2018-10-17T02:07:17.444Z,1015.04
2018-10-17T02:08:17.428Z,1015.06
2018-10-17T02:09:17.411Z,1015.04
2018-10-17T02:10:17.412Z,1015.02
2018-10-17T02:11:17.413Z,1014.98
2018-10-17T02:12:17.362Z,1014.99
2018-10-17T02:13:17.361Z,1014.97
2018-10-17T02:14:17.325Z,1014.95
2018-10-17T02:15:17.330Z,1014.94
2018-10-17T02:16:17.299Z,1014.92
2018-10-17T02:17:17.278Z,1014.93
2018-10-17T02:18:17.284Z,1014.95
2018-10-17T02:19:17.251Z,1014.99
2018-10-17T02:20:17.239Z,1014.97
2018-10-17T02:21:17.211Z,1014.97
2018-10-17T02:22:17.197Z,1014.98
2018-10-17T02:23:17.245Z,1014.97
2018-10-17T02:24:17.170Z,1014.95
2018-10-17T02:25:17.144Z,1014.92
2018-10-17T02:26:17.152Z,1014.92
2018-10-17T02:27:17.116Z,1014.93
2018-10-17T02:28:17.120Z,1014.91
2018-10-17T02:29:17.172Z,1014.93
2018-10-17T02:30:17.085Z,1014.92
2018-10-17T02:31:17.909Z,1014.91
2018-10-17T02:32:17.039Z,1014.93
2018-10-17T02:33:17.786Z,1014.94
2018-10-17T02:34:17.012Z,1014.92
2018-10-17T02:35:17.047Z,1014.89
2018-10-17T02:36:16.983Z,1014.95
2018-10-17T02:37:17.112Z,1014.90
2018-10-17T02:38:16.944Z,1014.94
2018-10-17T02:39:16.923Z,1014.89
2018-10-17T02:40:16.907Z,1014.88
2018-10-17T02:41:16.997Z,1014.89
2018-10-17T02:42:16.881Z,1014.90
2018-10-17T02:43:16.994Z,1014.88
2018-10-17T02:44:16.850Z,1014.87
2018-10-17T02:45:16.830Z,1014.87
2018-10-17T02:46:16.815Z,1014.89
2018-10-17T02:47:16.878Z,1014.86
2018-10-17T02:48:16.780Z,1014.84
2018-10-17T02:49:16.962Z,1014.82
2018-10-17T02:50:16.749Z,1014.82
2018-10-17T02:51:16.732Z,1014.83
2018-10-17T02:52:16.726Z,1014.82
2018-10-17T02:53:16.831Z,1014.84
2018-10-17T02:54:16.682Z,1014.82
2018-10-17T02:55:16.759Z,1014.82
2018-10-17T02:56:16.646Z,1014.87
2018-10-17T02:57:16.633Z,1014.83
2018-10-17T02:58:16.642Z,1014.82
2018-10-17T02:59:16.696Z,1014.81
2018-10-17T03:00:16.583Z,1014.82
2018-10-17T03:01:16.665Z,1014.83
2018-10-17T03:02:16.565Z,1014.81
2018-10-17T03:03:16.539Z,1014.82
2018-10-17T03:04:16.546Z,1014.84
2018-10-17T03:05:16.608Z,1014.82
2018-10-17T03:06:16.486Z,1014.85
2018-10-17T03:07:16.518Z,1014.84
2018-10-17T03:08:16.458Z,1014.83
2018-10-17T03:09:16.496Z,1014.83
2018-10-17T03:10:16.422Z,1014.81
2018-10-17T03:11:16.485Z,1014.82
2018-10-17T03:12:16.394Z,1014.84
2018-10-17T03:13:16.530Z,1014.83
2018-10-17T03:14:16.364Z,1014.85
2018-10-17T03:15:16.364Z,1014.88
2018-10-17T03:16:16.331Z,1014.89
2018-10-17T03:17:16.386Z,1014.89
2018-10-17T03:18:16.297Z,1014.92
2018-10-17T03:19:16.443Z,1014.93
2018-10-17T03:20:16.286Z,1014.97
2018-10-17T03:21:16.247Z,1014.98
2018-10-17T03:22:16.234Z,1015.01
2018-10-17T03:23:16.266Z,1015.00
2018-10-17T03:24:16.203Z,1015.01
2018-10-17T03:25:16.258Z,1015.01
2018-10-17T03:26:16.169Z,1015.01
2018-10-17T03:27:16.178Z,1015.04
2018-10-17T03:28:16.167Z,1014.99
2018-10-17T03:29:16.199Z,1014.99
2018-10-17T03:30:16.106Z,1014.99
2018-10-17T03:31:16.129Z,1015.03
2018-10-17T03:32:16.072Z,1014.99
2018-10-17T03:33:16.070Z,1015.02
2018-10-17T03:34:16.039Z,1015.01
2018-10-17T03:35:16.120Z,1015.01
2018-10-17T03:36:16.009Z,1015.03
2018-10-17T03:37:16.032Z,1014.99
2018-10-17T03:38:16.003Z,1015.02
2018-10-17T03:39:15.965Z,1014.99
2018-10-17T03:40:15.941Z,1015.02
2018-10-17T03:41:15.991Z,1015.03
2018-10-17T03:42:15.910Z,1015.01
2018-10-17T03:43:16.057Z,1015.02
2018-10-17T03:44:15.875Z,1015.02
2018-10-17T03:45:15.861Z,1015.02
2018-10-17T03:46:15.844Z,1015.07
2018-10-17T03:47:15.890Z,1015.07
2018-10-17T03:48:15.815Z,1015.03
2018-10-17T03:49:16.028Z,1015.06
2018-10-17T03:50:15.784Z,1015.06
2018-10-17T03:51:15.761Z,1015.11
2018-10-17T03:52:15.750Z,1015.09
2018-10-17T03:53:15.744Z,1015.08
2018-10-17T03:54:15.742Z,1015.08
2018-10-17T03:55:15.814Z,1015.09
2018-10-17T03:56:15.685Z,1015.11
2018-10-17T03:57:15.668Z,1015.11
2018-10-17T03:58:15.668Z,1015.10
2018-10-17T03:59:15.739Z,1015.14
2018-10-17T04:00:15.618Z,1015.18
2018-10-17T04:01:15.693Z,1015.15
2018-10-17T04:02:15.624Z,1015.16
2018-10-17T04:03:15.621Z,1015.15
2018-10-17T04:04:15.559Z,1015.18
2018-10-17T04:05:15.619Z,1015.17
2018-10-17T04:06:15.523Z,1015.14
2018-10-17T04:07:15.529Z,1015.13
2018-10-17T04:08:15.511Z,1015.15
2018-10-17T04:09:15.485Z,1015.18
2018-10-17T04:10:15.458Z,1015.17
2018-10-17T04:11:15.519Z,1015.18
2018-10-17T04:12:15.429Z,1015.17
2018-10-17T04:13:15.498Z,1015.18
2018-10-17T04:14:15.403Z,1015.19
2018-10-17T04:15:15.380Z,1015.17
2018-10-17T04:16:15.380Z,1015.16
2018-10-17T04:17:15.423Z,1015.18
2018-10-17T04:18:15.329Z,1015.13
2018-10-17T04:19:15.413Z,1015.13
2018-10-17T04:20:15.318Z,1015.17
2018-10-17T04:21:15.292Z,1015.14
2018-10-17T04:22:15.270Z,1015.18
2018-10-17T04:23:15.298Z,1015.21
2018-10-17T04:24:15.231Z,1015.21
2018-10-17T04:25:15.279Z,1015.21
2018-10-17T04:26:15.197Z,1015.22
2018-10-17T04:27:15.178Z,1015.20
2018-10-17T04:28:15.166Z,1015.22
2018-10-17T04:29:15.162Z,1015.22
2018-10-17T04:30:15.247Z,1015.23
2018-10-17T04:31:15.164Z,1015.24
2018-10-17T04:32:15.109Z,1015.23
2018-10-17T04:33:15.082Z,1015.22
2018-10-17T04:34:15.063Z,1015.23
2018-10-17T04:35:15.063Z,1015.22
2018-10-17T04:36:15.101Z,1015.19
2018-10-17T04:37:15.070Z,1015.21
2018-10-17T04:38:14.996Z,1015.25
2018-10-17T04:39:14.990Z,1015.22
2018-10-17T04:40:14.967Z,1015.25
2018-10-17T04:41:14.985Z,1015.24
2018-10-17T04:42:14.941Z,1015.21
2018-10-17T04:43:15.910Z,1015.27
2018-10-17T04:44:14.904Z,1015.27
2018-10-17T04:45:14.893Z,1015.27
2018-10-17T04:46:14.887Z,1015.36
2018-10-17T04:47:14.913Z,1015.44
2018-10-17T04:48:14.832Z,1015.49
2018-10-17T04:49:14.917Z,1015.48
2018-10-17T04:50:14.817Z,1015.46
2018-10-17T04:51:14.817Z,1015.43
2018-10-17T04:52:14.766Z,1015.42
2018-10-17T04:53:15.428Z,1015.45
2018-10-17T04:54:14.733Z,1015.46
2018-10-17T04:55:14.771Z,1015.49
2018-10-17T04:56:14.707Z,1015.44
2018-10-17T04:57:14.710Z,1015.43
2018-10-17T04:58:14.668Z,1015.45
2018-10-17T04:59:14.778Z,1015.40
2018-10-17T05:00:14.668Z,1015.35
2018-10-17T05:01:14.666Z,1015.37
2018-10-17T05:02:14.605Z,1015.37
2018-10-17T05:03:14.615Z,1015.36
2018-10-17T05:04:14.572Z,1015.38
2018-10-17T05:05:14.600Z,1015.43
2018-10-17T05:06:14.535Z,1015.44
2018-10-17T05:07:14.581Z,1015.36
2018-10-17T05:08:14.519Z,1015.32
2018-10-17T05:09:14.487Z,1015.33
2018-10-17T05:10:14.476Z,1015.34
2018-10-17T05:11:14.508Z,1015.29
2018-10-17T05:12:14.438Z,1015.20
2018-10-17T05:13:14.537Z,1015.28
2018-10-17T05:14:14.422Z,1015.32
2018-10-17T05:15:14.417Z,1015.34
2018-10-17T05:16:14.367Z,1015.37
2018-10-17T05:17:14.460Z,1015.36
2018-10-17T05:18:14.336Z,1015.39
2018-10-17T05:19:14.458Z,1015.41
2018-10-17T05:20:14.327Z,1015.41
2018-10-17T05:21:14.289Z,1015.45
2018-10-17T05:22:14.271Z,1015.42
2018-10-17T05:23:14.356Z,1015.40
2018-10-17T05:24:14.245Z,1015.43
2018-10-17T05:25:14.301Z,1015.43
2018-10-17T05:26:14.213Z,1015.38
2018-10-17T05:27:14.211Z,1015.38
2018-10-17T05:28:14.177Z,1015.45
2018-10-17T05:29:14.219Z,1015.46
2018-10-17T05:30:14.138Z,1015.47
2018-10-17T05:31:14.897Z,1015.50
2018-10-17T05:32:14.107Z,1015.50
2018-10-17T05:33:14.812Z,1015.48
2018-10-17T05:34:14.073Z,1015.49
2018-10-17T05:35:14.146Z,1015.46
2018-10-17T05:36:14.053Z,1015.47
2018-10-17T05:37:14.139Z,1015.48
2018-10-17T05:38:14.811Z,1015.53
2018-10-17T05:39:13.985Z,1015.54
2018-10-17T05:40:13.967Z,1015.56
2018-10-17T05:41:14.055Z,1015.55
2018-10-17T05:42:13.941Z,1015.52
2018-10-17T05:43:14.015Z,1015.53
2018-10-17T05:44:13.957Z,1015.51
2018-10-17T05:45:13.883Z,1015.53
2018-10-17T05:46:13.891Z,1015.55
2018-10-17T05:47:13.957Z,1015.51
2018-10-17T05:48:13.853Z,1015.53
2018-10-17T05:49:13.942Z,1015.50
2018-10-17T05:50:13.795Z,1015.52
2018-10-17T05:51:13.782Z,1015.53
2018-10-17T05:52:13.773Z,1015.50
2018-10-17T05:53:13.848Z,1015.52
2018-10-17T05:54:13.728Z,1015.51
2018-10-17T05:55:13.791Z,1015.51
2018-10-17T05:56:13.701Z,1015.53
2018-10-17T05:57:13.688Z,1015.51
2018-10-17T05:58:13.673Z,1015.51
2018-10-17T05:59:13.728Z,1015.53
2018-10-17T06:00:13.649Z,1015.56
2018-10-17T06:01:13.707Z,1015.56
2018-10-17T06:02:13.694Z,1015.52
2018-10-17T06:03:13.582Z,1015.57
2018-10-17T06:04:13.567Z,1015.56
2018-10-17T06:05:13.625Z,1015.55
2018-10-17T06:06:13.525Z,1015.60
2018-10-17T06:07:13.618Z,1015.59
2018-10-17T06:08:13.491Z,1015.57
2018-10-17T06:09:13.477Z,1015.61
2018-10-17T06:10:13.487Z,1015.54
2018-10-17T06:11:13.544Z,1015.57
2018-10-17T06:12:13.428Z,1015.55
2018-10-17T06:13:13.482Z,1015.59
2018-10-17T06:14:13.401Z,1015.55
2018-10-17T06:15:13.394Z,1015.52
2018-10-17T06:16:13.373Z,1015.58
2018-10-17T06:17:13.364Z,1015.56
2018-10-17T06:18:13.328Z,1015.55
2018-10-17T06:19:13.341Z,1015.58
2018-10-17T06:20:13.312Z,1015.57
2018-10-17T06:21:13.278Z,1015.57
2018-10-17T06:22:13.283Z,1015.59
2018-10-17T06:23:13.289Z,1015.61
2018-10-17T06:24:13.227Z,1015.60
2018-10-17T06:25:13.238Z,1015.61
2018-10-17T06:26:13.210Z,1015.63
2018-10-17T06:27:13.201Z,1015.60
2018-10-17T06:28:13.199Z,1015.61
2018-10-17T06:29:13.289Z,1015.60
2018-10-17T06:30:13.140Z,1015.58
2018-10-17T06:31:13.337Z,1015.65
2018-10-17T06:32:13.100Z,1015.63
2018-10-17T06:33:13.091Z,1015.60
2018-10-17T06:34:13.148Z,1015.58
2018-10-17T06:35:13.102Z,1015.63
2018-10-17T06:36:13.020Z,1015.65
2018-10-17T06:37:13.150Z,1015.64
2018-10-17T06:38:12.990Z,1015.67
2018-10-17T06:39:12.992Z,1015.64
2018-10-17T06:40:12.973Z,1015.64
2018-10-17T06:41:13.000Z,1015.63
2018-10-17T06:42:12.918Z,1015.65
2018-10-17T06:43:12.989Z,1015.63
2018-10-17T06:44:12.901Z,1015.65
2018-10-17T06:45:13.802Z,1015.63
2018-10-17T06:46:12.852Z,1015.60
2018-10-17T06:47:12.923Z,1015.61
2018-10-17T06:48:12.836Z,1015.61
2018-10-17T06:49:12.959Z,1015.60
2018-10-17T06:50:12.791Z,1015.60
2018-10-17T06:51:12.819Z,1015.61
2018-10-17T06:52:12.765Z,1015.65
2018-10-17T06:53:12.807Z,1015.65
2018-10-17T06:54:12.773Z,1015.64
2018-10-17T06:55:12.771Z,1015.62
2018-10-17T06:56:12.682Z,1015.64
2018-10-17T06:57:12.663Z,1015.63
2018-10-17T06:58:12.666Z,1015.68
2018-10-17T06:59:12.680Z,1015.68
2018-10-17T07:00:12.615Z,1015.69
2018-10-17T07:01:12.614Z,1015.66
2018-10-17T07:02:12.628Z,1015.65
2018-10-17T07:03:12.567Z,1015.70
2018-10-17T07:04:12.557Z,1015.72
2018-10-17T07:05:12.578Z,1015.72
2018-10-17T07:06:12.537Z,1015.71
2018-10-17T07:07:12.608Z,1015.73
2018-10-17T07:08:12.494Z,1015.77
2018-10-17T07:09:12.465Z,1015.72
2018-10-17T07:10:12.482Z,1015.76
2018-10-17T07:11:12.484Z,1015.76
2018-10-17T07:12:12.431Z,1015.75
2018-10-17T07:13:12.507Z,1015.72
2018-10-17T07:14:12.392Z,1015.73
2018-10-17T07:15:12.460Z,1015.70
2018-10-17T07:16:12.350Z,1015.77
2018-10-17T07:17:12.349Z,1015.77
2018-10-17T07:18:12.345Z,1015.76
2018-10-17T07:19:12.301Z,1015.70
2018-10-17T07:20:12.286Z,1015.70
2018-10-17T07:21:12.270Z,1015.68
2018-10-17T07:22:12.248Z,1015.67
2018-10-17T07:23:12.427Z,1015.67
2018-10-17T07:24:12.237Z,1015.65
2018-10-17T07:25:12.267Z,1015.66
2018-10-17T07:26:12.184Z,1015.67
2018-10-17T07:27:12.169Z,1015.67
2018-10-17T07:28:12.173Z,1015.65
2018-10-17T07:29:12.164Z,1015.66
2018-10-17T07:30:12.141Z,1015.68
2018-10-17T07:31:12.353Z,1015.70
2018-10-17T07:32:12.085Z,1015.72
2018-10-17T07:33:12.088Z,1015.67
2018-10-17T07:34:12.071Z,1015.67
2018-10-17T07:35:12.043Z,1015.69
2018-10-17T07:36:12.119Z,1015.70
2018-10-17T07:37:12.011Z,1015.71
2018-10-17T07:38:12.011Z,1015.71
2018-10-17T07:39:11.971Z,1015.70
2018-10-17T07:40:11.956Z,1015.76
2018-10-17T07:41:11.958Z,1015.70
2018-10-17T07:42:12.013Z,1015.70
2018-10-17T07:43:11.913Z,1015.69
2018-10-17T07:44:11.899Z,1015.71
2018-10-17T07:45:11.878Z,1015.72
2018-10-17T07:46:11.882Z,1015.72
2018-10-17T07:47:11.849Z,1015.68
2018-10-17T07:48:11.959Z,1015.68
2018-10-17T07:49:11.819Z,1015.70
2018-10-17T07:50:11.807Z,1015.69
2018-10-17T07:51:11.799Z,1015.71
2018-10-17T07:52:11.787Z,1015.73
2018-10-17T07:53:11.824Z,1015.71
2018-10-17T07:54:11.743Z,1015.73
2018-10-17T07:55:11.720Z,1015.80
2018-10-17T07:56:11.703Z,1015.76
2018-10-17T07:57:11.706Z,1015.80
2018-10-17T07:58:11.688Z,1015.80
2018-10-17T07:59:11.653Z,1015.81
2018-10-17T08:00:11.650Z,1015.82
2018-10-17T08:01:11.628Z,1015.85
2018-10-17T08:02:11.606Z,1015.87
2018-10-17T08:03:11.608Z,1015.83
2018-10-17T08:04:11.580Z,1015.86
2018-10-17T08:05:11.554Z,1015.85
2018-10-17T08:06:11.612Z,1015.84
2018-10-17T08:07:11.530Z,1015.89
2018-10-17T08:08:12.321Z,1015.91
2018-10-17T08:09:11.520Z,1015.93
2018-10-17T08:10:11.481Z,1015.91
2018-10-17T08:11:11.461Z,1015.91
2018-10-17T08:12:11.543Z,1015.94
2018-10-17T08:13:11.431Z,1015.92
2018-10-17T08:14:11.588Z,1015.94
2018-10-17T08:15:11.411Z,1015.95
2018-10-17T08:16:11.411Z,1015.94
2018-10-17T08:17:11.371Z,1015.96
2018-10-17T08:18:11.437Z,1015.94
2018-10-17T08:19:11.359Z,1015.96
2018-10-17T08:20:11.333Z,1015.95
2018-10-17T08:21:11.361Z,1015.95
2018-10-17T08:22:11.289Z,1015.99
2018-10-17T08:23:11.271Z,1015.94
2018-10-17T08:24:11.380Z,1015.97
2018-10-17T08:25:11.237Z,1015.98
2018-10-17T08:26:11.239Z,1015.96
2018-10-17T08:27:11.268Z,1016.01
2018-10-17T08:28:11.195Z,1016.02
2018-10-17T08:29:11.203Z,1015.99
2018-10-17T08:30:11.273Z,1016.04
2018-10-17T08:31:11.137Z,1016.01
2018-10-17T08:32:11.143Z,1015.99
2018-10-17T08:33:11.104Z,1016.01
2018-10-17T08:34:11.118Z,1016.04
2018-10-17T08:35:11.094Z,1016.04
2018-10-17T08:36:11.106Z,1016.08
2018-10-17T08:37:11.514Z,1016.07
2018-10-17T08:38:11.087Z,1016.07
2018-10-17T08:39:11.012Z,1016.06
2018-10-17T08:40:11.017Z,1016.08
2018-10-17T08:41:11.092Z,1016.09
2018-10-17T08:42:10.973Z,1016.07
2018-10-17T08:43:10.954Z,1016.08
2018-10-17T08:44:11.026Z,1016.06
2018-10-17T08:45:12.933Z,1016.07
2018-10-17T08:46:10.915Z,1016.04
2018-10-17T08:47:10.884Z,1016.06
2018-10-17T08:48:10.876Z,1016.05
2018-10-17T08:49:10.853Z,1016.08
2018-10-17T08:50:10.870Z,1016.08
2018-10-17T08:51:10.830Z,1016.07
2018-10-17T08:52:10.808Z,1016.09
2018-10-17T08:53:10.789Z,1016.09
2018-10-17T08:54:10.772Z,1016.11
2018-10-17T08:55:10.781Z,1016.09
2018-10-17T08:56:10.806Z,1016.13
2018-10-17T08:57:10.732Z,1016.10
2018-10-17T08:58:10.712Z,1016.14
2018-10-17T08:59:10.711Z,1016.15
2018-10-17T09:00:10.679Z,1016.14
2018-10-17T09:01:10.689Z,1016.13
2018-10-17T09:02:10.744Z,1016.14
2018-10-17T09:03:10.633Z,1016.14
2018-10-17T09:04:10.636Z,1016.16
2018-10-17T09:05:10.603Z,1016.15
2018-10-17T09:06:10.704Z,1016.16
2018-10-17T09:07:10.593Z,1016.17
2018-10-17T09:08:10.602Z,1016.18
2018-10-17T09:09:10.543Z,1016.22
2018-10-17T09:10:10.527Z,1016.23
2018-10-17T09:11:10.512Z,1016.21
2018-10-17T09:12:10.619Z,1016.22
2018-10-17T09:13:10.483Z,1016.19
2018-10-17T09:14:10.544Z,1016.20
2018-10-17T09:15:10.451Z,1016.25
2018-10-17T09:16:10.472Z,1016.24
2018-10-17T09:17:10.421Z,1016.25
2018-10-17T09:18:10.456Z,1016.26
2018-10-17T09:19:10.434Z,1016.23
2018-10-17T09:20:10.538Z,1016.24
2018-10-17T09:21:10.630Z,1016.23
2018-10-17T09:22:10.745Z,1016.25
2018-10-17T09:23:10.352Z,1016.24
2018-10-17T09:24:10.367Z,1016.26
2018-10-17T09:25:10.399Z,1016.25
2018-10-17T09:26:10.296Z,1016.25
2018-10-17T09:27:10.277Z,1016.24
2018-10-17T09:28:10.310Z,1016.24
2018-10-17T09:29:10.266Z,1016.28
2018-10-17T09:30:10.295Z,1016.25
2018-10-17T09:31:10.210Z,1016.25
2018-10-17T09:32:10.217Z,1016.25
2018-10-17T09:33:10.182Z,1016.27
2018-10-17T09:34:10.240Z,1016.30
2018-10-17T09:35:10.287Z,1016.28
2018-10-17T09:36:10.247Z,1016.27
2018-10-17T09:37:10.129Z,1016.28
2018-10-17T09:38:10.129Z,1016.27
2018-10-17T09:39:10.100Z,1016.29
2018-10-17T09:40:10.147Z,1016.33
2018-10-17T09:41:10.064Z,1016.30
2018-10-17T09:42:10.099Z,1016.30
2018-10-17T09:43:10.093Z,1016.33
2018-10-17T09:44:10.044Z,1016.30
2018-10-17T09:45:10.005Z,1016.33
2018-10-17T09:46:10.084Z,1016.29
2018-10-17T09:47:09.987Z,1016.30
2018-10-17T09:48:10.012Z,1016.28
2018-10-17T09:49:09.965Z,1016.33
2018-10-17T09:50:09.972Z,1016.34
2018-10-17T09:51:09.930Z,1016.31
2018-10-17T09:52:10.025Z,1016.27
2018-10-17T09:53:09.936Z,1016.30
2018-10-17T09:54:10.006Z,1016.30
2018-10-17T09:55:09.874Z,1016.30
2018-10-17T09:56:09.868Z,1016.30
2018-10-17T09:57:09.836Z,1016.32
2018-10-17T09:58:09.869Z,1016.32
2018-10-17T09:59:09.812Z,1016.32
2018-10-17T10:00:09.879Z,1016.30
2018-10-17T10:01:09.782Z,1016.38
2018-10-17T10:02:09.813Z,1016.35
2018-10-17T10:03:09.760Z,1016.36
2018-10-17T10:04:09.825Z,1016.33
2018-10-17T10:05:09.761Z,1016.32
2018-10-17T10:06:09.749Z,1016.33
2018-10-17T10:07:09.722Z,1016.37
2018-10-17T10:08:09.691Z,1016.36
2018-10-17T10:09:09.677Z,1016.35
2018-10-17T10:10:09.713Z,1016.37
2018-10-17T10:11:09.740Z,1016.36
2018-10-17T10:12:09.687Z,1016.35
2018-10-17T10:13:09.620Z,1016.35
2018-10-17T10:14:09.616Z,1016.34
2018-10-17T10:15:09.596Z,1016.38
2018-10-17T10:16:09.689Z,1016.37
2018-10-17T10:17:09.682Z,1016.36
2018-10-17T10:18:09.559Z,1016.40
2018-10-17T10:19:09.552Z,1016.36
2018-10-17T10:20:09.535Z,1016.40
2018-10-17T10:21:09.522Z,1016.39
2018-10-17T10:22:09.569Z,1016.40
2018-10-17T10:23:09.529Z,1016.42
2018-10-17T10:24:09.548Z,1016.40
2018-10-17T10:25:09.485Z,1016.38
2018-10-17T10:26:09.460Z,1016.40
2018-10-17T10:27:09.466Z,1016.36
2018-10-17T10:28:09.532Z,1016.36
2018-10-17T10:29:09.423Z,1016.38
2018-10-17T10:30:09.435Z,1016.39
2018-10-17T10:31:09.425Z,1016.41
2018-10-17T10:32:09.399Z,1016.38
2018-10-17T10:33:09.383Z,1016.42
2018-10-17T10:34:09.387Z,1016.37
2018-10-17T10:35:09.376Z,1016.42
2018-10-17T10:36:09.359Z,1016.38
2018-10-17T10:37:09.355Z,1016.33
2018-10-17T10:38:09.350Z,1016.33
2018-10-17T10:39:09.321Z,1016.32
2018-10-17T10:40:09.435Z,1016.33
2018-10-17T10:41:09.299Z,1016.33
2018-10-17T10:42:09.346Z,1016.32
2018-10-17T10:43:09.289Z,1016.34
2018-10-17T10:44:09.324Z,1016.30
2018-10-17T10:45:09.408Z,1016.29
2018-10-17T10:46:09.254Z,1016.29
2018-10-17T10:47:09.260Z,1016.30
2018-10-17T10:48:09.278Z,1016.31
2018-10-17T10:49:09.317Z,1016.25
2018-10-17T10:50:09.373Z,1016.26
2018-10-17T10:51:09.320Z,1016.23
2018-10-17T10:52:09.214Z,1016.25
2018-10-17T10:53:09.208Z,1016.25
2018-10-17T10:54:09.230Z,1016.20
2018-10-17T10:55:09.191Z,1016.22
2018-10-17T10:56:09.227Z,1016.21
2018-10-17T10:57:09.203Z,1016.24
2018-10-17T10:58:09.231Z,1016.25
2018-10-17T10:59:09.234Z,1016.23
2018-10-17T11:00:09.203Z,1016.22
2018-10-17T11:01:09.160Z,1016.18
2018-10-17T11:02:09.153Z,1016.20
2018-10-17T11:03:09.201Z,1016.18
2018-10-17T11:04:09.150Z,1016.18
2018-10-17T11:05:09.160Z,1016.20
2018-10-17T11:06:09.136Z,1016.21
2018-10-17T11:07:09.106Z,1016.21
2018-10-17T11:08:09.183Z,1016.19
2018-10-17T11:09:09.094Z,1016.17
2018-10-17T11:10:09.094Z,1016.20
2018-10-17T11:11:09.108Z,1016.19
2018-10-17T11:12:09.087Z,1016.17
2018-10-17T11:13:09.070Z,1016.17
2018-10-17T11:14:09.174Z,1016.17
2018-10-17T11:15:09.101Z,1016.14
2018-10-17T11:16:09.053Z,1016.18
2018-10-17T11:17:09.088Z,1016.15
2018-10-17T11:18:09.045Z,1016.13
2018-10-17T11:19:09.040Z,1016.14
2018-10-17T11:20:09.023Z,1016.15
2018-10-17T11:21:09.087Z,1016.12
2018-10-17T11:22:09.039Z,1016.09
2018-10-17T11:23:09.070Z,1016.10
2018-10-17T11:24:09.014Z,1016.09
2018-10-17T11:25:08.989Z,1016.08
2018-10-17T11:26:08.983Z,1016.07
2018-10-17T11:27:09.068Z,1016.10
2018-10-17T11:28:08.973Z,1016.10
2018-10-17T11:29:09.023Z,1016.09
2018-10-17T11:30:08.961Z,1016.07
2018-10-17T11:31:08.951Z,1016.07
2018-10-17T11:32:08.951Z,1016.06
2018-10-17T11:33:08.992Z,1016.09
2018-10-17T11:34:08.949Z,1016.05
2018-10-17T11:35:09.002Z,1016.06
2018-10-17T11:36:08.935Z,1016.06
2018-10-17T11:37:08.927Z,1016.02
2018-10-17T11:38:08.928Z,1016.02
2018-10-17T11:39:08.928Z,1016.03
2018-10-17T11:40:08.972Z,1016.04
2018-10-17T11:41:08.983Z,1016.00
2018-10-17T11:42:08.901Z,1016.05
2018-10-17T11:43:08.898Z,1016.03
2018-10-17T11:44:08.892Z,1016.04
2018-10-17T11:45:08.996Z,1016.00
2018-10-17T11:46:08.904Z,1016.02
2018-10-17T11:47:08.911Z,1016.04
2018-10-17T11:48:08.876Z,1016.01
2018-10-17T11:49:08.867Z,1016.02
2018-10-17T11:50:08.885Z,1016.03
2018-10-17T11:51:09.112Z,1016.00
2018-10-17T11:52:08.882Z,1016.01
2018-10-17T11:53:08.930Z,1016.00
2018-10-17T11:54:08.845Z,1016.00
2018-10-17T11:55:08.861Z,1015.96
2018-10-17T11:56:08.839Z,1016.02
2018-10-17T11:57:08.860Z,1015.99
2018-10-17T11:58:08.850Z,1015.96
2018-10-17T11:59:08.857Z,1015.99
2018-10-17T12:00:08.842Z,1015.96
2018-10-17T12:01:08.823Z,1015.97
2018-10-17T12:02:08.816Z,1015.95
2018-10-17T12:03:08.927Z,1015.89
2018-10-17T12:04:09.074Z,1015.88
2018-10-17T12:05:09.003Z,1015.88